createdAt,value
2018-09-12T00:00:08.446Z,24.4
2018-09-12T00:00:58.188Z,24.4
2018-09-12T00:01:48.290Z,24.4
2018-09-12T00:02:37.497Z,24.4
2018-09-12T00:03:28.399Z,24.4
2018-09-12T00:04:18.695Z,24.4
2018-09-12T00:05:08.242Z,24.4
2018-09-12T00:05:58.049Z,24.4
2018-09-12T00:06:48.665Z,24.4
2018-09-12T00:07:38.501Z,24.4
2018-09-12T00:08:28.771Z,24.4
2018-09-12T00:09:19.072Z,24.4
2018-09-12T00:10:09.235Z,24.4
2018-09-12T00:10:58.704Z,24.4
2018-09-12T00:11:49.346Z,24.4
2018-09-12T00:12:39.062Z,24.4
2018-09-12T00:13:28.879Z,24.4
2018-09-12T00:14:19.513Z,24.4
2018-09-12T00:15:08.490Z,24.4
2018-09-12T00:15:58.314Z,24.4
2018-09-12T00:16:48.633Z,24.4
2018-09-12T00:17:39.248Z,24.4
2018-09-12T00:18:29.591Z,24.4
2018-09-12T00:19:19.124Z,24.4
2018-09-12T00:20:09.914Z,24.4
2018-09-12T00:20:59.748Z,24.4
2018-09-12T00:21:50.065Z,24.4
2018-09-12T00:22:39.856Z,24.4
2018-09-12T00:23:29.937Z,24.4
2018-09-12T00:42:57.709Z,24.4
2018-09-12T00:43:46.580Z,24.4
2018-09-12T00:44:36.931Z,24.4
2018-09-12T00:45:27.000Z,24.4
2018-09-12T00:46:17.022Z,24.4
2018-09-12T00:47:07.125Z,24.4
2018-09-12T00:47:57.076Z,24.4
2018-09-12T00:48:46.670Z,24.4
2018-09-12T00:49:37.281Z,24.4
2018-09-12T00:50:27.100Z,24.4
2018-09-12T00:51:16.854Z,24.4
2018-09-12T00:52:07.182Z,24.4
2018-09-12T00:52:58.830Z,24.4
2018-09-12T00:53:47.855Z,24.4
2018-09-12T00:54:37.647Z,24.4
2018-09-12T00:55:27.447Z,24.4
2018-09-12T00:56:17.767Z,24.4
2018-09-12T00:57:07.850Z,24.4
2018-09-12T00:57:58.207Z,24.4
2018-09-12T00:58:47.391Z,24.4
2018-09-12T00:59:38.012Z,24.4
2018-09-12T01:00:27.552Z,24.4
2018-09-12T01:01:17.927Z,24.4
2018-09-12T01:02:08.524Z,24.4
2018-09-12T01:02:58.282Z,24.4
2018-09-12T01:03:48.616Z,24.4
2018-09-12T01:04:37.841Z,24.4
2018-09-12T01:05:27.898Z,24.4
2018-09-12T01:06:17.922Z,24.4
2018-09-12T01:07:08.308Z,24.4
2018-09-12T01:07:58.908Z,24.4
2018-09-12T01:08:48.433Z,24.4
2018-09-12T01:09:38.233Z,24.4
2018-09-12T01:10:28.555Z,24.4
2018-09-12T01:22:19.260Z,24.4
2018-09-12T01:23:09.334Z,24.4
2018-09-12T01:23:59.393Z,24.4
2018-09-12T01:24:49.450Z,24.4
2018-09-12T01:25:39.763Z,24.4
2018-09-12T01:26:29.260Z,24.4
2018-09-12T01:27:19.895Z,24.4
2018-09-12T01:28:09.354Z,24.4
2018-09-12T01:29:00.309Z,24.4
2018-09-12T01:29:49.235Z,24.4
2018-09-12T01:30:40.172Z,24.4
2018-09-12T01:31:29.932Z,24.4
2018-09-12T01:32:20.782Z,24.4
2018-09-12T01:33:10.605Z,24.4
2018-09-12T01:34:00.429Z,24.4
2018-09-12T01:34:50.821Z,24.4
2018-09-12T01:35:40.501Z,24.4
2018-09-12T01:36:30.877Z,24.4
2018-09-12T01:37:20.887Z,24.4
2018-09-12T01:38:11.269Z,24.4
2018-09-12T01:39:00.572Z,24.4
2018-09-12T01:39:50.858Z,24.4
2018-09-12T01:40:40.315Z,24.4
2018-09-12T01:41:30.974Z,24.4
2018-09-12T01:42:21.004Z,24.4
2018-09-12T01:43:10.490Z,24.4
2018-09-12T01:44:01.163Z,24.4
2018-09-12T01:44:50.921Z,24.4
2018-09-12T01:45:41.267Z,24.4
2018-09-12T01:46:30.759Z,24.4
2018-09-12T01:47:21.346Z,24.4
2018-09-12T01:48:11.438Z,24.4
2018-09-12T01:49:00.921Z,24.4
2018-09-12T01:49:51.603Z,24.4
2018-09-12T01:50:41.363Z,24.4
2018-09-12T01:51:31.448Z,24.4
2018-09-12T01:52:21.736Z,24.4
2018-09-12T01:53:12.116Z,24.4
2018-09-12T01:54:01.914Z,24.4
2018-09-12T01:54:51.101Z,24.4
2018-09-12T01:55:41.745Z,24.4
2018-09-12T01:56:32.371Z,24.4
2018-09-12T01:57:21.589Z,24.4
2018-09-12T01:58:12.604Z,24.4
2018-09-12T01:59:01.948Z,24.4
2018-09-12T01:59:52.045Z,24.4
2018-09-12T02:00:41.798Z,24.4
2018-09-12T02:01:32.739Z,24.4
2018-09-12T02:02:21.918Z,24.4
2018-09-12T02:03:12.305Z,24.4
2018-09-12T02:04:02.060Z,24.4
2018-09-12T02:04:52.738Z,24.4
2018-09-12T02:05:42.788Z,24.4
2018-09-12T02:06:33.137Z,24.4
2018-09-12T02:07:22.909Z,24.4
2018-09-12T02:08:13.010Z,24.4
2018-09-12T02:09:02.266Z,24.4
2018-09-12T02:09:53.039Z,24.4
2018-09-12T02:10:43.185Z,24.4
2018-09-12T02:11:32.915Z,24.4
2018-09-12T02:12:22.694Z,24.4
2018-09-12T02:13:13.604Z,24.4
2018-09-12T02:14:02.794Z,24.4
2018-09-12T02:14:53.470Z,24.4
2018-09-12T02:15:42.932Z,24.4
2018-09-12T02:16:33.006Z,24.4
2018-09-12T02:17:23.164Z,24.4
2018-09-12T02:18:13.157Z,24.4
2018-09-12T02:19:04.127Z,24.4
2018-09-12T02:19:53.787Z,24.4
2018-09-12T02:20:44.226Z,24.4
2018-09-12T02:21:33.954Z,24.4
2018-09-12T02:22:23.474Z,24.4
2018-09-12T02:23:13.194Z,24.4
2018-09-12T02:24:03.814Z,24.4
2018-09-12T02:24:54.176Z,24.4
2018-09-12T02:25:44.287Z,24.4
2018-09-12T02:26:34.492Z,24.4
2018-09-12T02:27:24.022Z,24.4
2018-09-12T02:28:14.246Z,24.4
2018-09-12T02:29:05.081Z,24.4
2018-09-12T02:29:54.331Z,24.4
2018-09-12T02:30:44.383Z,24.4
2018-09-12T02:31:34.177Z,24.4
2018-09-12T02:32:24.500Z,24.4
2018-09-12T02:33:14.833Z,24.4
2018-09-12T02:34:05.078Z,24.4
2018-09-12T02:34:55.246Z,24.4
2018-09-12T02:35:45.053Z,24.4
2018-09-12T02:36:35.374Z,24.4
2018-09-12T02:37:25.141Z,24.4
2018-09-12T02:38:15.222Z,24.4
2018-09-12T02:39:05.275Z,24.4
2018-09-12T02:39:54.999Z,24.4
2018-09-12T02:40:45.385Z,24.4
2018-09-12T02:41:35.733Z,24.4
2018-09-12T02:42:24.940Z,24.4
2018-09-12T02:43:14.713Z,24.4
2018-09-12T02:44:05.108Z,24.4
2018-09-12T02:44:55.808Z,24.4
2018-09-12T02:45:46.069Z,24.4
2018-09-12T02:46:35.967Z,24.4
2018-09-12T02:47:25.896Z,24.4
2018-09-12T02:48:16.043Z,24.4
2018-09-12T02:49:06.576Z,24.4
2018-09-12T02:49:55.889Z,24.4
2018-09-12T02:50:45.573Z,24.4
2018-09-12T02:51:36.763Z,24.4
2018-09-12T02:52:26.595Z,24.4
2018-09-12T02:53:16.295Z,24.4
2018-09-12T02:54:06.607Z,24.4
2018-09-12T02:54:57.095Z,24.4
2018-09-12T02:55:46.443Z,24.4
2018-09-12T02:56:35.458Z,24.4
2018-09-12T02:57:26.625Z,24.4
2018-09-12T02:58:16.394Z,24.4
2018-09-12T02:59:06.804Z,24.4
2018-09-12T02:59:56.232Z,24.4
2018-09-12T03:00:46.905Z,24.4
2018-09-12T03:01:36.625Z,24.4
2018-09-12T03:02:26.435Z,24.4
2018-09-12T03:03:16.824Z,24.4
2018-09-12T03:04:07.082Z,24.4
2018-09-12T03:04:57.712Z,24.4
2018-09-12T03:05:46.929Z,24.4
2018-09-12T03:06:36.786Z,24.4
2018-09-12T03:07:27.374Z,24.4
2018-09-12T03:08:17.136Z,24.4
2018-09-12T03:09:07.494Z,24.4
2018-09-12T03:09:56.996Z,24.4
2018-09-12T03:10:47.452Z,24.4
2018-09-12T03:11:37.094Z,24.4
2018-09-12T03:12:27.773Z,24.4
2018-09-12T03:13:17.869Z,24.4
2018-09-12T03:14:07.636Z,24.4
2018-09-12T03:14:57.947Z,24.4
2018-09-12T03:15:48.228Z,24.4
2018-09-12T03:16:38.284Z,24.4
2018-09-12T03:17:26.979Z,24.4
2018-09-12T03:18:18.154Z,24.4
2018-09-12T03:19:07.985Z,24.4
2018-09-12T03:19:58.361Z,24.4
2018-09-12T03:20:51.067Z,24.4
2018-09-12T03:21:38.189Z,24.4
2018-09-12T03:22:28.236Z,24.4
2018-09-12T03:23:18.266Z,24.4
2018-09-12T03:24:07.768Z,24.4
2018-09-12T03:24:58.444Z,24.4
2018-09-12T03:25:49.073Z,24.4
2018-09-12T03:26:38.814Z,24.4
2018-09-12T03:27:28.905Z,24.4
2018-09-12T03:28:18.644Z,24.4
2018-09-12T03:29:08.475Z,24.4
2018-09-12T03:29:57.638Z,24.4
2018-09-12T03:30:49.123Z,24.4
2018-09-12T03:31:39.600Z,24.4
2018-09-12T03:32:29.143Z,24.4
2018-09-12T03:33:19.271Z,24.4
2018-09-12T03:34:09.380Z,24.4
2018-09-12T03:34:59.125Z,24.4
2018-09-12T03:35:49.169Z,24.4
2018-09-12T03:36:39.572Z,24.4
2018-09-12T03:37:29.613Z,24.4
2018-09-12T03:38:19.400Z,24.4
2018-09-12T03:39:09.453Z,24.4
2018-09-12T03:39:59.785Z,24.4
2018-09-12T03:40:50.186Z,24.4
2018-09-12T03:41:39.643Z,24.4
2018-09-12T03:42:30.251Z,24.4
2018-09-12T03:43:19.520Z,24.4
2018-09-12T03:44:10.128Z,24.4
2018-09-12T03:44:59.608Z,24.4
2018-09-12T03:45:49.909Z,24.4
2018-09-12T03:46:40.280Z,24.4
2018-09-12T03:47:30.147Z,24.4
2018-09-12T03:48:20.137Z,24.4
2018-09-12T03:49:10.229Z,24.4
2018-09-12T03:50:00.260Z,24.4
2018-09-12T03:50:50.892Z,24.4
2018-09-12T03:51:40.985Z,24.4
2018-09-12T03:52:31.114Z,24.4
2018-09-12T03:53:20.317Z,24.4
2018-09-12T03:54:10.950Z,24.4
2018-09-12T03:55:00.684Z,24.4
2018-09-12T03:55:50.672Z,24.4
2018-09-12T03:56:40.429Z,24.4
2018-09-12T03:57:30.507Z,24.4
2018-09-12T03:58:20.900Z,24.4
2018-09-12T03:59:11.259Z,24.4
2018-09-12T04:00:01.307Z,24.4
2018-09-12T04:00:51.057Z,24.4
2018-09-12T04:01:41.434Z,24.4
2018-09-12T04:02:31.573Z,24.4
2018-09-12T04:03:21.552Z,24.4
2018-09-12T04:04:11.314Z,24.4
2018-09-12T04:05:01.095Z,24.4
2018-09-12T04:05:51.758Z,24.4
2018-09-12T04:06:41.889Z,24.4
2018-09-12T04:07:31.824Z,24.4
2018-09-12T04:08:21.686Z,24.4
2018-09-12T04:09:11.762Z,24.4
2018-09-12T04:10:02.416Z,24.4
2018-09-12T04:10:51.818Z,24.4
2018-09-12T04:11:41.876Z,24.4
2018-09-12T04:12:31.710Z,24.4
2018-09-12T04:13:21.991Z,24.4
2018-09-12T04:14:12.023Z,24.4
2018-09-12T04:15:01.845Z,24.4
2018-09-12T04:15:52.471Z,24.4
2018-09-12T04:16:42.678Z,24.4
2018-09-12T04:17:32.326Z,24.4
2018-09-12T04:18:22.638Z,24.4
2018-09-12T04:19:12.775Z,24.4
2018-09-12T04:20:02.526Z,24.4
2018-09-12T04:20:52.874Z,24.4
2018-09-12T04:21:42.910Z,24.4
2018-09-12T04:22:32.207Z,24.4
2018-09-12T04:23:22.453Z,24.4
2018-09-12T04:24:13.069Z,24.4
2018-09-12T04:25:02.304Z,24.4
2018-09-12T04:25:53.500Z,24.4
2018-09-12T04:26:43.539Z,24.4
2018-09-12T04:27:32.997Z,24.4
2018-09-12T04:28:23.076Z,24.4
2018-09-12T04:29:13.465Z,24.4
2018-09-12T04:30:03.558Z,24.4
2018-09-12T04:30:53.605Z,24.4
2018-09-12T04:31:43.660Z,24.4
2018-09-12T04:32:34.006Z,24.4
2018-09-12T04:33:23.134Z,24.4
2018-09-12T04:34:14.135Z,24.4
2018-09-12T04:35:03.902Z,24.4
2018-09-12T04:35:53.997Z,24.4
2018-09-12T04:36:43.759Z,24.4
2018-09-12T04:37:33.852Z,24.4
2018-09-12T04:38:24.594Z,24.4
2018-09-12T04:39:14.090Z,24.4
2018-09-12T04:40:04.620Z,24.4
2018-09-12T04:40:54.369Z,24.4
2018-09-12T04:41:44.727Z,24.4
2018-09-12T04:42:35.488Z,24.4
2018-09-12T04:43:24.899Z,24.4
2018-09-12T04:44:13.729Z,24.4
2018-09-12T04:45:05.037Z,24.4
2018-09-12T04:45:54.407Z,24.4
2018-09-12T04:46:44.796Z,24.4
2018-09-12T04:47:34.546Z,24.4
2018-09-12T04:48:25.519Z,24.4
2018-09-12T04:49:14.964Z,24.4
2018-09-12T04:50:05.031Z,24.4
2018-09-12T04:50:55.073Z,24.4
2018-09-12T04:51:45.469Z,24.4
2018-09-12T04:52:34.859Z,24.4
2018-09-12T04:53:25.541Z,24.4
2018-09-12T04:54:14.727Z,24.4
2018-09-12T04:55:05.088Z,24.4
2018-09-12T04:55:54.839Z,24.4
2018-09-12T04:56:45.231Z,24.4
2018-09-12T04:57:35.008Z,24.4
2018-09-12T04:58:25.966Z,24.4
2018-09-12T04:59:15.673Z,24.4
2018-09-12T05:00:05.491Z,24.4
2018-09-12T05:00:55.828Z,24.4
2018-09-12T05:17:50.904Z,23.3
2018-09-12T05:18:40.650Z,23.1
2018-09-12T05:19:30.987Z,23.1
2018-09-12T05:20:20.777Z,23.1
2018-09-12T05:21:10.537Z,23
2018-09-12T05:22:01.177Z,22.9
2018-09-12T05:22:51.664Z,22.9
2018-09-12T05:23:41.291Z,22.8
2018-09-12T05:24:31.089Z,22.8
2018-09-12T05:25:21.409Z,22.8
2018-09-12T05:26:11.736Z,22.7
2018-09-12T05:41:12.718Z,22.3
2018-09-12T05:41:23.598Z,22.3
2018-09-12T05:42:13.921Z,22.3
2018-09-12T05:43:03.726Z,22.3
2018-09-12T05:43:53.775Z,22.3
2018-09-12T05:44:44.173Z,22.3
2018-09-12T05:45:33.879Z,22.3
2018-09-12T05:46:23.533Z,22.3
2018-09-12T05:47:14.580Z,22.3
2018-09-12T05:48:03.484Z,22.3
2018-09-12T05:48:53.580Z,22.3
2018-09-12T05:49:44.625Z,21.6
2018-09-12T05:50:34.553Z,22.1
2018-09-12T05:51:24.425Z,21.9
2018-09-12T05:52:14.708Z,24.6
2018-09-12T05:53:05.030Z,25.8
2018-09-12T05:53:54.960Z,25.6
2018-09-12T05:54:44.870Z,24.8
2018-09-12T05:55:34.375Z,24.2
2018-09-12T05:56:24.966Z,23.9
2018-09-12T05:57:15.371Z,24.1
2018-09-12T05:58:03.955Z,24.4
2018-09-12T05:58:55.161Z,24.8
2018-09-12T05:59:45.248Z,25.1
2018-09-12T06:00:35.032Z,25.2
2018-09-12T06:01:25.088Z,25.3
2018-09-12T06:02:15.107Z,25.2
2018-09-12T06:03:05.259Z,25.3
2018-09-12T06:03:55.845Z,25.4
2018-09-12T06:04:45.608Z,25.6
2018-09-12T06:05:35.712Z,25.7
2018-09-12T06:06:26.430Z,25.8
2018-09-12T06:07:17.728Z,25.9
2018-09-12T06:08:05.569Z,26.1
2018-09-12T06:08:55.062Z,26.2
2018-09-12T06:09:46.289Z,26.3
2018-09-12T06:10:36.042Z,26.4
2018-09-12T06:11:26.100Z,26.5
2018-09-12T06:12:16.144Z,26.6
2018-09-12T06:13:06.255Z,26.6
2018-09-12T06:13:56.665Z,26.6
2018-09-12T06:14:46.052Z,26.8
2018-09-12T06:15:36.409Z,26.9
2018-09-12T06:16:26.817Z,27
2018-09-12T06:17:16.856Z,27.2
2018-09-12T06:18:06.881Z,27.3
2018-09-12T06:18:56.384Z,27.4
2018-09-12T06:19:46.458Z,27.5
2018-09-12T06:20:36.816Z,27.6
2018-09-12T06:21:25.976Z,27.5
2018-09-12T06:22:16.641Z,27.6
2018-09-12T06:23:06.221Z,27.7
2018-09-12T06:23:55.751Z,27.9
2018-09-12T06:24:46.303Z,28
2018-09-12T06:25:36.896Z,28.2
2018-09-12T06:26:27.368Z,28.3
2018-09-12T06:27:17.520Z,28.4
2018-09-12T06:28:07.070Z,28.6
2018-09-12T06:28:57.414Z,28.7
2018-09-12T06:29:47.081Z,28.8
2018-09-12T06:30:37.413Z,28.9
2018-09-12T06:31:27.437Z,29.1
2018-09-12T06:32:17.711Z,29.3
2018-09-12T06:33:07.470Z,29.4
2018-09-12T06:33:57.828Z,29.5
2018-09-12T06:34:48.415Z,29.6
2018-09-12T06:35:37.932Z,29.8
2018-09-12T06:36:27.155Z,29.9
2018-09-12T06:37:17.618Z,30.1
2018-09-12T06:38:07.262Z,30.2
2018-09-12T06:38:57.942Z,30.3
2018-09-12T06:39:48.240Z,30.4
2018-09-12T06:40:38.105Z,30.6
2018-09-12T06:41:28.437Z,30.8
2018-09-12T06:42:18.782Z,30.9
2018-09-12T06:43:08.006Z,31
2018-09-12T06:43:58.293Z,31.2
2018-09-12T06:44:48.755Z,31.3
2018-09-12T06:45:38.392Z,31.4
2018-09-12T06:46:28.206Z,31.6
2018-09-12T06:47:19.162Z,31.7
2018-09-12T06:48:08.612Z,31.9
2018-09-12T06:48:58.676Z,31.9
2018-09-12T06:49:48.131Z,32.1
2018-09-12T06:50:38.783Z,32.3
2018-09-12T06:51:28.552Z,32.4
2018-09-12T06:52:18.631Z,32.6
2018-09-12T06:53:08.963Z,32.7
2018-09-12T06:53:58.974Z,32.8
2018-09-12T06:54:50.953Z,32.9
2018-09-12T06:55:39.796Z,33.1
2018-09-12T06:56:29.519Z,33.3
2018-09-12T06:57:19.528Z,33.4
2018-09-12T06:58:09.346Z,33.6
2018-09-12T06:58:59.399Z,33.7
2018-09-12T06:59:49.776Z,33.9
2018-09-12T07:00:39.586Z,34
2018-09-12T07:01:30.258Z,34.1
2018-09-12T07:02:20.295Z,34.3
2018-09-12T07:03:09.711Z,34.4
2018-09-12T07:03:59.739Z,34.6
2018-09-12T07:04:49.852Z,34.7
2018-09-12T07:05:39.930Z,34.8
2018-09-12T07:06:29.955Z,35
2018-09-12T07:07:20.629Z,35.2
2018-09-12T07:08:10.760Z,35.3
2018-09-12T07:09:00.162Z,35.4
2018-09-12T07:09:49.940Z,35.5
2018-09-12T07:10:40.297Z,35.7
2018-09-12T07:11:30.157Z,35.8
2018-09-12T07:12:19.961Z,35.9
2018-09-12T07:13:10.598Z,36.1
2018-09-12T07:14:00.271Z,36.3
2018-09-12T07:14:49.899Z,36.4
2018-09-12T07:15:39.907Z,36.6
2018-09-12T07:16:30.519Z,36.7
2018-09-12T07:17:20.521Z,36.9
2018-09-12T07:18:11.240Z,37
2018-09-12T07:19:00.436Z,37.1
2018-09-12T07:19:50.705Z,37.3
2018-09-12T07:20:40.516Z,37.4
2018-09-12T07:21:30.959Z,37.6
2018-09-12T07:22:21.499Z,37.7
2018-09-12T07:23:11.046Z,37.9
2018-09-12T07:24:01.312Z,38
2018-09-12T07:24:51.993Z,38.1
2018-09-12T07:25:41.413Z,38.3
2018-09-12T07:26:31.189Z,38.4
2018-09-12T07:27:21.586Z,38.5
2018-09-12T07:28:11.605Z,38.7
2018-09-12T07:29:01.198Z,38.8
2018-09-12T07:29:51.746Z,38.9
2018-09-12T07:30:42.566Z,39.1
2018-09-12T07:31:31.646Z,39.2
2018-09-12T07:32:21.365Z,39.4
2018-09-12T07:33:12.271Z,39.5
2018-09-12T07:34:02.633Z,39.7
2018-09-12T07:34:51.826Z,39.8
2018-09-12T07:35:42.193Z,39.9
2018-09-12T07:36:31.466Z,40.1
2018-09-12T07:37:22.298Z,40.2
2018-09-12T07:38:11.797Z,40.4
2018-09-12T07:39:02.150Z,40.5
2018-09-12T07:39:52.773Z,40.6
2018-09-12T07:40:43.115Z,40.8
2018-09-12T07:41:33.533Z,40.9
2018-09-12T07:42:22.130Z,41.1
2018-09-12T07:43:13.058Z,41.3
2018-09-12T07:44:03.123Z,41.4
2018-09-12T07:44:52.864Z,41.5
2018-09-12T07:45:43.272Z,41.6
2018-09-12T07:46:33.270Z,41.8
2018-09-12T07:47:23.502Z,41.9
2018-09-12T07:48:13.408Z,42.1
2018-09-12T07:49:03.277Z,42.2
2018-09-12T07:49:52.973Z,42.3
2018-09-12T07:50:43.583Z,42.5
2018-09-12T07:51:33.726Z,42.6
2018-09-12T07:52:23.170Z,42.8
2018-09-12T07:53:13.785Z,42.9
2018-09-12T07:54:04.139Z,43.1
2018-09-12T07:54:53.658Z,43.2
2018-09-12T07:55:43.402Z,43.3
2018-09-12T07:56:34.436Z,43.5
2018-09-12T07:57:23.767Z,43.7
2018-09-12T07:58:14.508Z,43.8
2018-09-12T07:59:04.195Z,43.9
2018-09-12T07:59:54.201Z,44.1
2018-09-12T08:00:43.642Z,44.2
2018-09-12T08:01:34.424Z,44.4
2018-09-12T08:02:23.873Z,44.5
2018-09-12T08:03:14.515Z,44.6
2018-09-12T08:04:05.137Z,44.8
2018-09-12T08:04:53.929Z,44.9
2018-09-12T08:05:44.474Z,45.1
2018-09-12T08:06:34.515Z,45.2
2018-09-12T08:07:24.592Z,45.3
2018-09-12T08:08:15.209Z,45.4
2018-09-12T08:09:04.938Z,45.6
2018-09-12T08:09:54.463Z,45.8
2018-09-12T08:10:44.544Z,45.9
2018-09-12T08:11:34.909Z,46
2018-09-12T08:12:25.516Z,46.1
2018-09-12T08:13:15.052Z,46.3
2018-09-12T08:14:04.782Z,46.4
2018-09-12T08:14:55.219Z,46.6
2018-09-12T08:15:44.945Z,46.7
2018-09-12T08:16:35.819Z,46.8
2018-09-12T08:17:25.357Z,46.9
2018-09-12T08:18:14.824Z,47.1
2018-09-12T08:19:06.851Z,47.2
2018-09-12T08:19:55.596Z,47.4
2018-09-12T08:20:45.608Z,47.5
2018-09-12T08:21:36.491Z,47.6
2018-09-12T08:22:25.972Z,47.8
2018-09-12T08:23:15.492Z,47.9
2018-09-12T08:24:05.811Z,48
2018-09-12T08:24:54.776Z,48.1
2018-09-12T08:25:46.243Z,48.3
2018-09-12T08:26:36.398Z,48.4
2018-09-12T08:27:25.231Z,48.5
2018-09-12T08:28:16.141Z,48.6
2018-09-12T08:29:06.768Z,48.8
2018-09-12T08:29:56.008Z,48.9
2018-09-12T08:30:47.208Z,49
2018-09-12T08:31:36.946Z,49.1
2018-09-12T08:32:26.482Z,49.3
2018-09-12T08:33:17.051Z,49.4
2018-09-12T08:34:07.155Z,49.6
2018-09-12T08:34:56.652Z,49.6
2018-09-12T08:35:46.752Z,49.8
2018-09-12T08:36:38.151Z,49.9
2018-09-12T08:37:27.257Z,49.9
2018-09-12T08:38:16.910Z,50.1
2018-09-12T08:39:06.980Z,50.2
2018-09-12T08:39:57.840Z,50.3
2018-09-12T08:40:47.112Z,50.4
2018-09-12T08:41:36.595Z,50.6
2018-09-12T08:42:27.609Z,50.7
2018-09-12T08:43:16.734Z,50.8
2018-09-12T08:44:07.108Z,50.9
2018-09-12T08:44:57.382Z,51
2018-09-12T08:45:47.292Z,51.1
2018-09-12T08:46:37.557Z,51.3
2018-09-12T08:47:27.854Z,51.3
2018-09-12T08:48:17.715Z,51.4
2018-09-12T08:49:07.752Z,51.6
2018-09-12T08:49:57.516Z,51.7
2018-09-12T08:50:48.149Z,51.8
2018-09-12T08:51:37.640Z,51.9
2018-09-12T08:52:28.267Z,52
2018-09-12T08:53:17.891Z,52.1
2018-09-12T08:54:07.855Z,52.2
2018-09-12T08:54:57.645Z,52.3
2018-09-12T08:56:38.653Z,52.4
2018-09-12T08:57:27.808Z,52.6
2018-09-12T08:58:19.019Z,52.7
2018-09-12T08:59:08.779Z,52.8
2018-09-12T08:59:58.561Z,52.9
2018-09-12T09:00:48.902Z,53
2018-09-12T09:01:39.439Z,53.1
2018-09-12T09:02:28.181Z,53.2
2018-09-12T09:03:19.344Z,53.3
2018-09-12T09:04:09.887Z,53.3
2018-09-12T09:04:59.246Z,53.4
2018-09-12T09:05:49.546Z,53.6
2018-09-12T09:06:39.884Z,53.7
2018-09-12T09:07:29.151Z,53.8
2018-09-12T09:08:19.743Z,53.8
2018-09-12T09:09:09.053Z,53.9
2018-09-12T09:09:58.749Z,53.9
2018-09-12T09:10:50.053Z,54.1
2018-09-12T09:11:39.469Z,54.2
2018-09-12T09:12:29.496Z,54.3
2018-09-12T09:13:19.283Z,54.3
2018-09-12T09:14:09.643Z,54.4
2018-09-12T09:14:59.418Z,54.5
2018-09-12T09:15:49.747Z,54.6
2018-09-12T09:16:39.629Z,54.7
2018-09-12T09:17:30.443Z,54.8
2018-09-12T09:18:20.245Z,54.8
2018-09-12T09:19:09.446Z,54.9
2018-09-12T09:20:00.682Z,55.1
2018-09-12T09:20:50.670Z,55.1
2018-09-12T09:21:40.215Z,55.3
2018-09-12T09:22:30.573Z,55.3
2018-09-12T09:23:20.062Z,55.3
2018-09-12T09:39:43.459Z,57
2018-09-12T09:40:33.251Z,57.1
2018-09-12T09:41:22.442Z,57.2
2018-09-12T09:42:13.081Z,57.3
2018-09-12T09:43:02.866Z,57.3
2018-09-12T09:43:52.747Z,57.4
2018-09-12T09:44:42.971Z,57.4
2018-09-12T09:45:33.153Z,57.6
2018-09-12T09:46:23.108Z,57.7
2018-09-12T09:48:04.516Z,57.8
2018-09-12T09:48:53.589Z,57.9
2018-09-12T09:49:43.616Z,58.1
2018-09-12T09:50:33.416Z,58.1
2018-09-12T09:51:23.483Z,58.2
2018-09-12T09:52:13.537Z,58.3
2018-09-12T09:53:03.599Z,58.4
2018-09-12T09:53:53.385Z,58.4
2018-09-12T09:54:43.614Z,58.5
2018-09-12T09:55:34.040Z,58.6
2018-09-12T09:56:23.005Z,58.6
2018-09-12T09:57:12.841Z,58.8
2018-09-12T09:58:03.980Z,58.8
2018-09-12T09:58:54.040Z,59
2018-09-12T09:59:44.105Z,59.1
2018-09-12T10:00:34.752Z,59.2
2018-09-12T10:01:24.222Z,59.3
2018-09-12T10:02:14.272Z,59.3
2018-09-12T10:03:03.772Z,59.4
2018-09-12T10:03:54.445Z,59.5
2018-09-12T10:04:45.079Z,59.6
2018-09-12T10:05:34.517Z,59.7
2018-09-12T10:06:24.642Z,59.8
2018-09-12T10:07:15.222Z,59.9
2018-09-12T10:08:05.016Z,59.9
2018-09-12T10:08:54.793Z,60.1
2018-09-12T10:09:44.864Z,60.1
2018-09-12T10:10:35.184Z,60.3
2018-09-12T10:11:24.734Z,60.3
2018-09-12T10:12:14.501Z,60.4
2018-09-12T10:13:04.615Z,60.5
2018-09-12T10:13:55.460Z,60.6
2018-09-12T10:14:45.279Z,60.8
2018-09-12T10:15:34.726Z,60.8
2018-09-12T10:16:25.153Z,60.8
2018-09-12T10:17:16.009Z,60.6
2018-09-12T10:18:04.656Z,60.3
2018-09-12T10:18:55.273Z,60.1
2018-09-12T10:19:45.628Z,60
2018-09-12T10:20:36.213Z,59.9
2018-09-12T10:21:26.332Z,59.8
2018-09-12T10:22:15.821Z,59.6
2018-09-12T10:23:06.158Z,59.6
2018-09-12T10:23:56.217Z,59.6
2018-09-12T10:24:45.425Z,59.8
2018-09-12T10:25:36.584Z,60.3
2018-09-12T10:26:25.572Z,60.6
2018-09-12T10:27:15.895Z,60.8
2018-09-12T10:28:06.255Z,60.8
2018-09-12T10:28:56.333Z,60.7
2018-09-12T10:29:45.839Z,60.8
2018-09-12T10:30:37.320Z,60.9
2018-09-12T10:31:26.231Z,61
2018-09-12T10:32:16.853Z,61.1
2018-09-12T10:33:06.355Z,61.1
2018-09-12T10:33:56.971Z,60.9
2018-09-12T10:34:47.032Z,60.8
2018-09-12T10:35:37.102Z,61.1
2018-09-12T10:36:26.630Z,61.4
2018-09-12T10:37:17.517Z,61.6
2018-09-12T10:38:07.027Z,61.8
2018-09-12T10:38:57.098Z,61.9
2018-09-12T10:39:47.429Z,61.9
2018-09-12T10:40:37.223Z,62.1
2018-09-12T10:41:27.277Z,62.1
2018-09-12T10:42:17.884Z,62.2
2018-09-12T10:43:07.406Z,62.3
2018-09-12T10:43:57.462Z,62.4
2018-09-12T10:44:46.971Z,62.4
2018-09-12T10:45:37.612Z,62.6
2018-09-12T10:46:27.679Z,62.7
2018-09-12T10:47:17.434Z,62.7
2018-09-12T10:48:07.494Z,62.8
2018-09-12T10:48:58.116Z,62.9
2018-09-12T10:49:47.637Z,63
2018-09-12T10:50:37.934Z,63.1
2018-09-12T10:51:28.309Z,63.2
2018-09-12T10:52:18.079Z,63.3
2018-09-12T10:53:07.578Z,63.3
2018-09-12T10:53:57.966Z,63.5
2018-09-12T10:54:47.713Z,63.6
2018-09-12T10:55:38.894Z,63.6
2018-09-12T10:56:27.563Z,63.5
2018-09-12T10:57:18.475Z,63.3
2018-09-12T10:58:08.256Z,63.2
2018-09-12T10:58:58.943Z,63
2018-09-12T10:59:48.660Z,62.9
2018-09-12T11:00:38.426Z,62.8
2018-09-12T11:01:28.223Z,62.6
2018-09-12T11:02:18.858Z,62.4
2018-09-12T11:03:08.350Z,62.4
2018-09-12T11:03:59.283Z,62.6
2018-09-12T11:04:48.756Z,62.6
2018-09-12T11:05:38.821Z,62.6
2018-09-12T11:06:29.981Z,62.4
2018-09-12T11:07:18.650Z,62.4
2018-09-12T11:08:08.732Z,62.4
2018-09-12T11:08:59.072Z,62.6
2018-09-12T11:09:50.245Z,62.7
2018-09-12T11:10:39.803Z,62.6
2018-09-12T11:11:29.565Z,62.4
2018-09-12T11:12:19.543Z,62.2
2018-09-12T11:13:09.646Z,62.1
2018-09-12T11:14:00.027Z,61.9
2018-09-12T11:14:48.937Z,61.8
2018-09-12T11:15:39.878Z,61.8
2018-09-12T11:16:30.217Z,61.6
2018-09-12T11:17:20.631Z,61.6
2018-09-12T11:18:10.314Z,61.7
2018-09-12T11:19:00.420Z,62
2018-09-12T11:19:50.182Z,62.5
2018-09-12T11:20:39.380Z,62.8
2018-09-12T11:21:30.016Z,63.1
2018-09-12T11:22:20.380Z,63.2
2018-09-12T11:23:11.001Z,63.2
2018-09-12T11:24:01.306Z,63.3
2018-09-12T11:24:50.277Z,63.1
2018-09-12T11:25:40.075Z,62.9
2018-09-12T11:26:30.974Z,62.9
2018-09-12T11:27:20.183Z,63.2
2018-09-12T11:28:10.771Z,63.4
2018-09-12T11:29:00.025Z,63.6
2018-09-12T11:29:50.937Z,63.6
2018-09-12T11:30:40.718Z,63.6
2018-09-12T11:31:30.201Z,63.7
2018-09-12T11:32:21.659Z,63.8
2018-09-12T11:33:10.342Z,63.9
2018-09-12T11:34:01.819Z,63.9
2018-09-12T11:34:50.469Z,63.9
2018-09-12T11:35:41.384Z,63.9
2018-09-12T11:36:31.748Z,64
2018-09-12T11:37:20.727Z,64.2
2018-09-12T11:38:12.159Z,64.2
2018-09-12T11:39:01.348Z,64.2
2018-09-12T11:39:52.251Z,64.3
2018-09-12T11:40:41.881Z,64.4
2018-09-12T11:41:31.853Z,64.5
2018-09-12T11:42:22.153Z,64.6
2018-09-12T11:43:12.241Z,64.7
2018-09-12T11:44:02.345Z,64.7
2018-09-12T11:44:51.913Z,64.5
2018-09-12T11:45:42.460Z,64.3
2018-09-12T11:46:31.950Z,64
2018-09-12T11:47:22.273Z,63.8
2018-09-12T11:48:12.353Z,63.6
2018-09-12T11:49:02.668Z,63.5
2018-09-12T11:49:52.770Z,63.4
2018-09-12T11:50:43.337Z,63.3
2018-09-12T11:51:32.894Z,63.2
2018-09-12T11:52:22.419Z,63.1
2018-09-12T11:53:13.293Z,62.9
2018-09-12T11:54:02.757Z,62.8
2018-09-12T11:54:52.627Z,62.8
2018-09-12T11:55:42.707Z,62.8
2018-09-12T11:56:32.692Z,62.9
2018-09-12T11:57:22.465Z,63.1
2018-09-12T11:58:12.816Z,63.2
2018-09-12T11:59:02.595Z,63.1
2018-09-12T11:59:53.502Z,62.9
2018-09-12T12:00:42.730Z,62.9
2018-09-12T12:01:33.069Z,63.3
2018-09-12T12:02:23.933Z,63.6
2018-09-12T12:03:12.904Z,63.9
2018-09-12T12:04:04.070Z,64
2018-09-12T12:04:53.037Z,63.9
2018-09-12T12:05:43.096Z,63.8
2018-09-12T12:06:34.010Z,63.4
2018-09-12T12:07:23.766Z,63.3
2018-09-12T12:08:14.129Z,63.1
2018-09-12T12:09:03.936Z,63.3
2018-09-12T12:09:54.097Z,63.6
2018-09-12T12:10:43.491Z,64
2018-09-12T12:11:34.369Z,64.1
2018-09-12T12:12:24.464Z,64.2
2018-09-12T12:13:14.784Z,64.3
2018-09-12T12:14:04.528Z,64.4
2018-09-12T12:14:54.401Z,64.3
2018-09-12T12:15:44.706Z,64.3
2018-09-12T12:16:34.535Z,64.3
2018-09-12T12:17:24.536Z,64.3
2018-09-12T12:18:14.939Z,64.1
2018-09-12T12:19:04.938Z,64
2018-09-12T12:19:55.051Z,64.2
2018-09-12T12:20:44.840Z,64.3
2018-09-12T12:21:34.586Z,64.2
2018-09-12T12:22:25.212Z,63.9
2018-09-12T12:23:15.498Z,63.7
2018-09-12T12:24:05.616Z,63.5